Time;durP1;ratioP1;P1;durP2;ratioP2;P2;SDS_P1;SDS_P2;PMS_P1;PMS_P2;Temp;Humidity;BMP_temperature;BMP_pressure;BME280_temperature;BME280_humidity;BME280_pressure;Samples;Min_cycle;Max_cycle;Signal;HPM_P1;HPM_P2
2022/07/25 00:00:07;;;;;;;18.33;9.80;;;;;;;;;;5072518;28;20020;-77
2022/07/25 00:02:33;;;;;;;17.08;9.65;;;;;;;;;;5074821;28;20385;-77
2022/07/25 00:04:59;;;;;;;16.80;9.27;;;;;;;;;;5076311;28;20111;-76
2022/07/25 00:07:25;;;;;;;15.32;9.30;;;;;;;;;;5076016;28;20024;-77
2022/07/25 00:09:52;;;;;;;12.93;9.27;;;;;;;;;;5076129;28;20103;-76
2022/07/25 00:12:18;;;;;;;14.70;9.50;;;;;;;;;;5076165;28;20024;-75
2022/07/25 00:14:44;;;;;;;13.63;9.32;;;;;;;;;;5076609;28;20434;-75
2022/07/25 00:17:10;;;;;;;15.57;9.13;;;;;;;;;;5076083;28;20532;-76
2022/07/25 00:19:36;;;;;;;13.63;9.32;;;;;;;;;;5076412;28;20032;-77
2022/07/25 00:22:02;;;;;;;18.40;9.52;;;;;;;;;;5076678;28;20032;-77
2022/07/25 00:24:28;;;;;;;15.10;9.75;;;;;;;;;;5077081;28;20120;-76
2022/07/25 00:26:54;;;;;;;14.68;8.93;;;;;;;;;;5076993;28;20056;-75
2022/07/25 00:29:20;;;;;;;15.10;9.30;;;;;;;;;;5083854;28;20086;-74
2022/07/25 00:31:46;;;;;;;13.93;8.90;;;;;;;;;;5077121;28;20021;-76
2022/07/25 00:34:12;;;;;;;12.93;9.60;;;;;;;;;;5077340;28;20362;-75
2022/07/25 00:36:38;;;;;;;16.73;9.63;;;;;;;;;;5077628;28;20025;-76
2022/07/25 00:39:04;;;;;;;17.25;9.25;;;;;;;;;;5084193;28;20032;-75
2022/07/25 00:41:30;;;;;;;14.32;9.20;;;;;;;;;;5085781;28;20067;-76
2022/07/25 00:43:56;;;;;;;16.45;8.73;;;;;;;;;;5079390;28;20082;-77
2022/07/25 00:46:22;;;;;;;11.82;8.57;;;;;;;;;;5093987;28;20076;-74
2022/07/25 00:48:48;;;;;;;11.23;8.63;;;;;;;;;;5090948;28;20021;-75
2022/07/25 00:51:15;;;;;;;14.63;8.98;;;;;;;;;;5092635;28;20040;-75
2022/07/25 00:53:41;;;;;;;15.65;8.50;;;;;;;;;;5094214;28;20291;-77
2022/07/25 00:56:07;;;;;;;16.17;9.10;;;;;;;;;;5096285;28;20028;-77
2022/07/25 00:58:33;;;;;;;13.38;9.18;;;;;;;;;;5089552;28;20032;-77
2022/07/25 01:00:59;;;;;;;14.25;9.13;;;;;;;;;;5075335;28;20033;-76
2022/07/25 01:03:25;;;;;;;19.85;9.38;;;;;;;;;;5075093;28;20104;-77
2022/07/25 01:05:51;;;;;;;16.65;9.10;;;;;;;;;;5075342;28;20056;-75
2022/07/25 01:08:18;;;;;;;17.45;8.68;;;;;;;;;;5076600;28;20024;-76
2022/07/25 01:10:44;;;;;;;17.38;9.20;;;;;;;;;;5074852;28;20086;-77
2022/07/25 01:13:10;;;;;;;14.77;8.45;;;;;;;;;;5074210;28;20029;-77
2022/07/25 01:15:36;;;;;;;12.85;8.35;;;;;;;;;;5074825;28;20032;-77
2022/07/25 01:18:02;;;;;;;14.07;9.52;;;;;;;;;;5075206;28;20035;-77
2022/07/25 01:20:29;;;;;;;13.48;8.63;;;;;;;;;;5074106;28;20043;-76
2022/07/25 01:22:55;;;;;;;18.17;8.65;;;;;;;;;;5080453;28;20503;-78
2022/07/25 01:25:21;;;;;;;19.15;8.82;;;;;;;;;;5077117;28;20027;-77
2022/07/25 01:27:47;;;;;;;14.75;8.52;;;;;;;;;;5071059;28;20484;-76
2022/07/25 01:30:14;;;;;;;10.95;8.07;;;;;;;;;;5073007;28;20048;-77
2022/07/25 01:32:40;;;;;;;14.52;8.75;;;;;;;;;;5074307;28;20385;-76
2022/07/25 01:35:07;;;;;;;14.20;7.50;;;;;;;;;;5074384;28;20054;-77
2022/07/25 01:37:33;;;;;;;12.13;7.60;;;;;;;;;;5073816;28;20102;-77
2022/07/25 01:39:59;;;;;;;15.02;8.05;;;;;;;;;;5074581;28;20031;-77
2022/07/25 01:42:26;;;;;;;13.70;7.65;;;;;;;;;;5077821;28;20039;-77
2022/07/25 01:44:52;;;;;;;12.35;7.60;;;;;;;;;;5095895;28;20093;-77
2022/07/25 01:47:18;;;;;;;12.55;6.75;;;;;;;;;;5082212;28;20024;-77
2022/07/25 01:49:44;;;;;;;12.98;7.20;;;;;;;;;;5076953;28;20036;-76
2022/07/25 01:52:11;;;;;;;13.73;6.50;;;;;;;;;;5074447;28;20028;-77
2022/07/25 01:54:37;;;;;;;12.48;6.70;;;;;;;;;;5074152;28;20058;-78
2022/07/25 01:57:03;;;;;;;10.50;6.47;;;;;;;;;;5074010;28;20036;-77
2022/07/25 01:59:30;;;;;;;10.00;6.05;;;;;;;;;;5072924;28;20029;-77
2022/07/25 02:01:56;;;;;;;11.23;5.85;;;;;;;;;;5074498;28;20028;-77
2022/07/25 02:04:22;;;;;;;12.68;5.63;;;;;;;;;;5084039;28;20024;-75
2022/07/25 02:06:49;;;;;;;12.68;6.10;;;;;;;;;;5085897;28;20042;-76
2022/07/25 02:09:15;;;;;;;9.02;5.78;;;;;;;;;;5085677;28;20017;-75
2022/07/25 02:11:41;;;;;;;9.57;5.60;;;;;;;;;;5075631;28;20020;-76
2022/07/25 02:14:07;;;;;;;7.57;5.43;;;;;;;;;;5074081;28;20452;-76
2022/07/25 02:16:33;;;;;;;11.48;6.28;;;;;;;;;;5073172;28;20034;-76
2022/07/25 02:18:59;;;;;;;11.20;5.93;;;;;;;;;;5073984;28;20063;-76
2022/07/25 02:21:25;;;;;;;9.43;6.40;;;;;;;;;;5072104;28;20031;-76
2022/07/25 02:23:51;;;;;;;9.00;5.70;;;;;;;;;;5073573;28;20074;-76
2022/07/25 02:26:17;;;;;;;14.30;6.05;;;;;;;;;;5072977;28;20377;-76
2022/07/25 02:28:43;;;;;;;10.07;5.95;;;;;;;;;;5073393;28;20075;-76
2022/07/25 02:31:09;;;;;;;7.82;5.97;;;;;;;;;;5074133;28;20021;-76
2022/07/25 02:33:35;;;;;;;9.95;5.50;;;;;;;;;;5073913;28;20512;-74
2022/07/25 02:36:01;;;;;;;10.38;6.28;;;;;;;;;;5073858;28;20078;-76
2022/07/25 02:38:27;;;;;;;8.80;5.82;;;;;;;;;;5074705;28;20032;-75
2022/07/25 02:40:53;;;;;;;12.23;6.22;;;;;;;;;;5075678;28;20428;-76
2022/07/25 02:43:19;;;;;;;12.38;7.22;;;;;;;;;;5073029;28;20029;-78
2022/07/25 02:45:45;;;;;;;13.00;6.97;;;;;;;;;;5074236;28;20039;-77
2022/07/25 02:48:12;;;;;;;9.98;6.70;;;;;;;;;;5073178;28;20020;-77
2022/07/25 02:50:38;;;;;;;12.20;6.70;;;;;;;;;;5073276;28;20025;-76
2022/07/25 02:53:04;;;;;;;9.63;6.88;;;;;;;;;;5073333;28;20029;-77
2022/07/25 02:55:30;;;;;;;11.73;7.03;;;;;;;;;;5073968;28;20066;-78
2022/07/25 02:57:56;;;;;;;12.57;7.22;;;;;;;;;;5088915;28;20052;-79
2022/07/25 03:00:23;;;;;;;14.50;7.95;;;;;;;;;;5094406;28;20039;-76
2022/07/25 03:02:49;;;;;;;15.93;7.05;;;;;;;;;;5090576;28;20027;-76
2022/07/25 03:05:16;;;;;;;13.27;6.93;;;;;;;;;;5098191;28;20044;-81
2022/07/25 03:07:42;;;;;;;14.20;7.40;;;;;;;;;;5097544;28;20013;-79
2022/07/25 03:10:09;;;;;;;11.27;7.10;;;;;;;;;;5095977;28;20036;-77
2022/07/25 03:12:35;;;;;;;14.45;7.05;;;;;;;;;;5077517;28;20035;-77
2022/07/25 03:15:02;;;;;;;14.00;7.80;;;;;;;;;;5072918;28;20025;-76
2022/07/25 03:17:28;;;;;;;12.02;7.72;;;;;;;;;;5071174;28;20048;-77
2022/07/25 03:19:54;;;;;;;12.13;6.90;;;;;;;;;;5083440;28;20025;-77
2022/07/25 03:22:21;;;;;;;14.60;6.85;;;;;;;;;;5094664;28;20102;-78
2022/07/25 03:24:47;;;;;;;12.15;7.13;;;;;;;;;;5073622;28;20036;-78
2022/07/25 03:27:13;;;;;;;13.52;6.60;;;;;;;;;;5072302;28;20345;-77
2022/07/25 03:29:39;;;;;;;11.25;7.15;;;;;;;;;;5072839;28;20031;-77
2022/07/25 03:32:05;;;;;;;11.15;6.82;;;;;;;;;;5072456;28;20020;-78
2022/07/25 03:34:31;;;;;;;13.27;7.75;;;;;;;;;;5073235;28;20060;-76
2022/07/25 03:36:59;;;;;;;14.38;7.00;;;;;;;;;;5072401;28;20028;-76
2022/07/25 03:39:25;;;;;;;10.73;7.15;;;;;;;;;;5072551;28;20480;-76
2022/07/25 03:41:51;;;;;;;16.65;7.88;;;;;;;;;;5071097;28;20040;-77
2022/07/25 03:44:17;;;;;;;12.57;7.25;;;;;;;;;;5072451;28;20032;-77
2022/07/25 03:46:43;;;;;;;10.98;6.60;;;;;;;;;;5072177;28;20032;-77
2022/07/25 03:49:09;;;;;;;18.73;10.13;;;;;;;;;;5071039;28;20020;-77
2022/07/25 03:51:35;;;;;;;14.23;6.88;;;;;;;;;;5072498;28;20116;-77
2022/07/25 03:54:01;;;;;;;10.88;6.18;;;;;;;;;;5072221;28;20024;-77
2022/07/25 03:56:28;;;;;;;10.18;6.53;;;;;;;;;;5072078;28;20112;-76
2022/07/25 03:58:54;;;;;;;9.95;5.60;;;;;;;;;;5072357;28;20029;-77
2022/07/25 04:01:20;;;;;;;13.93;7.55;;;;;;;;;;5072699;28;20035;-75
2022/07/25 04:03:46;;;;;;;16.10;8.13;;;;;;;;;;5072637;28;20020;-76
2022/07/25 04:06:12;;;;;;;17.30;6.88;;;;;;;;;;5075048;28;20367;-75
2022/07/25 04:08:38;;;;;;;13.70;6.68;;;;;;;;;;5072978;28;20101;-76
2022/07/25 04:11:04;;;;;;;16.60;5.63;;;;;;;;;;5081682;28;20088;-76
2022/07/25 04:13:30;;;;;;;12.20;5.75;;;;;;;;;;5080725;28;20107;-77
2022/07/25 04:15:56;;;;;;;15.73;5.63;;;;;;;;;;5076122;28;20035;-78
2022/07/25 04:18:22;;;;;;;8.93;6.15;;;;;;;;;;5076675;28;20040;-76
2022/07/25 04:20:48;;;;;;;12.38;6.72;;;;;;;;;;5076593;28;20020;-77
2022/07/25 04:23:14;;;;;;;10.40;6.03;;;;;;;;;;5075068;28;20024;-77
2022/07/25 04:25:40;;;;;;;11.48;5.78;;;;;;;;;;5076631;28;20024;-75
2022/07/25 04:28:06;;;;;;;10.02;5.70;;;;;;;;;;5075347;28;20116;-75
2022/07/25 04:30:31;;;;;;;9.05;5.43;;;;;;;;;;5073411;28;20063;-74
2022/07/25 04:32:58;;;;;;;9.82;5.35;;;;;;;;;;5072094;28;20021;-75
2022/07/25 04:35:23;;;;;;;12.48;5.22;;;;;;;;;;5072692;28;20055;-74
2022/07/25 04:37:49;;;;;;;7.80;5.03;;;;;;;;;;5072354;28;20037;-76
2022/07/25 04:40:15;;;;;;;16.40;6.05;;;;;;;;;;5072902;28;20020;-75
2022/07/25 04:42:41;;;;;;;10.45;5.45;;;;;;;;;;5071627;28;20025;-74
2022/07/25 04:45:08;;;;;;;8.80;4.95;;;;;;;;;;5072245;28;20107;-75
2022/07/25 04:47:34;;;;;;;16.30;5.55;;;;;;;;;;5072366;28;20130;-75
2022/07/25 04:50:00;;;;;;;9.18;4.55;;;;;;;;;;5075951;28;20060;-76
2022/07/25 04:52:26;;;;;;;11.55;5.13;;;;;;;;;;5075630;28;20044;-76
2022/07/25 04:54:52;;;;;;;9.40;5.00;;;;;;;;;;5075155;28;20107;-77
2022/07/25 04:57:18;;;;;;;12.82;4.55;;;;;;;;;;5075366;28;20113;-76
2022/07/25 04:59:44;;;;;;;14.45;4.80;;;;;;;;;;5075546;28;20024;-76
2022/07/25 05:02:10;;;;;;;10.88;4.70;;;;;;;;;;5075255;28;20024;-76
2022/07/25 05:04:36;;;;;;;10.38;4.78;;;;;;;;;;5085735;28;20035;-79
2022/07/25 05:07:02;;;;;;;11.73;4.80;;;;;;;;;;5082425;28;20082;-77
2022/07/25 05:09:28;;;;;;;9.13;4.70;;;;;;;;;;5075166;28;20028;-77
2022/07/25 05:11:54;;;;;;;9.52;4.45;;;;;;;;;;5075079;28;20028;-77
2022/07/25 05:14:20;;;;;;;8.75;4.40;;;;;;;;;;5075283;28;20031;-77
2022/07/25 05:16:46;;;;;;;10.38;4.88;;;;;;;;;;5074791;28;20027;-77
2022/07/25 05:19:12;;;;;;;17.00;4.55;;;;;;;;;;5075405;28;20021;-79
2022/07/25 05:21:38;;;;;;;9.18;5.18;;;;;;;;;;5075710;28;20052;-78
2022/07/25 05:24:04;;;;;;;7.25;4.22;;;;;;;;;;5076512;28;20037;-78
2022/07/25 05:26:30;;;;;;;8.52;4.25;;;;;;;;;;5076390;28;20106;-76
2022/07/25 05:28:57;;;;;;;7.15;4.50;;;;;;;;;;5087322;22;20052;-73
2022/07/25 05:31:23;;;;;;;13.55;4.60;;;;;;;;;;5055677;28;20025;-72
2022/07/25 05:33:49;;;;;;;12.63;4.93;;;;;;;;;;5055033;28;20035;-74
2022/07/25 05:36:15;;;;;;;18.33;5.22;;;;;;;;;;5055410;28;20025;-74
2022/07/25 05:38:41;;;;;;;9.90;4.32;;;;;;;;;;5055351;28;20071;-74
2022/07/25 05:41:08;;;;;;;12.40;4.70;;;;;;;;;;5054852;28;20037;-74
2022/07/25 05:43:34;;;;;;;9.52;4.35;;;;;;;;;;5053584;28;20025;-73
2022/07/25 05:46:01;;;;;;;13.90;4.25;;;;;;;;;;5055126;28;20025;-73
2022/07/25 05:48:27;;;;;;;12.32;4.50;;;;;;;;;;5054981;28;20025;-73
2022/07/25 05:50:53;;;;;;;11.10;4.50;;;;;;;;;;5055468;28;20021;-73
2022/07/25 05:53:19;;;;;;;9.50;4.40;;;;;;;;;;5055866;28;20025;-72
2022/07/25 05:55:45;;;;;;;18.23;4.07;;;;;;;;;;5054387;28;20047;-73
2022/07/25 05:58:10;;;;;;;14.05;4.35;;;;;;;;;;5054011;28;20087;-71
2022/07/25 06:00:38;;;;;;;8.25;4.70;;;;;;;;;;5054137;28;20033;-71
2022/07/25 06:03:04;;;;;;;12.68;4.97;;;;;;;;;;5054672;28;20025;-73
2022/07/25 06:05:30;;;;;;;5.35;3.85;;;;;;;;;;5062082;28;20044;-73
2022/07/25 06:07:56;;;;;;;7.32;4.28;;;;;;;;;;5055160;28;20108;-74
2022/07/25 06:10:23;;;;;;;9.70;4.25;;;;;;;;;;5054760;28;20176;-73
2022/07/25 06:12:49;;;;;;;10.35;4.28;;;;;;;;;;5053758;28;20500;-74
2022/07/25 06:15:15;;;;;;;11.48;4.15;;;;;;;;;;5055085;28;20021;-69
2022/07/25 06:17:41;;;;;;;12.27;4.45;;;;;;;;;;5054135;28;20017;-73
2022/07/25 06:20:07;;;;;;;7.13;4.20;;;;;;;;;;5054417;28;20505;-73
2022/07/25 06:22:33;;;;;;;16.55;3.97;;;;;;;;;;5054244;28;20284;-73
2022/07/25 06:24:59;;;;;;;12.57;4.63;;;;;;;;;;5053820;28;20092;-73
2022/07/25 06:27:25;;;;;;;10.93;5.00;;;;;;;;;;5055504;28;20021;-75
2022/07/25 06:29:51;;;;;;;9.77;5.40;;;;;;;;;;5058582;28;20033;-74
2022/07/25 06:32:17;;;;;;;13.82;4.13;;;;;;;;;;5059427;28;20031;-74
2022/07/25 06:34:43;;;;;;;12.95;4.00;;;;;;;;;;5061250;28;20160;-74
2022/07/25 06:37:09;;;;;;;10.02;4.45;;;;;;;;;;5060272;28;20099;-75
2022/07/25 06:39:35;;;;;;;16.15;4.93;;;;;;;;;;5063017;28;20075;-75
2022/07/25 06:42:02;;;;;;;7.40;4.38;;;;;;;;;;5061726;28;20536;-75
2022/07/25 06:44:28;;;;;;;12.23;4.43;;;;;;;;;;5061162;28;20505;-74
2022/07/25 06:46:54;;;;;;;15.00;4.68;;;;;;;;;;5060006;28;20029;-74
2022/07/25 06:49:20;;;;;;;8.45;4.25;;;;;;;;;;5060343;28;20021;-74
2022/07/25 06:51:46;;;;;;;7.07;3.85;;;;;;;;;;5062156;28;20048;-74
2022/07/25 06:54:14;;;;;;;8.57;4.68;;;;;;;;;;5057107;28;20078;-74
2022/07/25 06:56:40;;;;;;;7.95;4.18;;;;;;;;;;5054246;28;20021;-74
2022/07/25 06:59:06;;;;;;;9.07;4.53;;;;;;;;;;5057817;28;20025;-74
2022/07/25 07:01:32;;;;;;;12.85;4.40;;;;;;;;;;5054306;28;20048;-75
2022/07/25 07:03:58;;;;;;;16.63;4.53;;;;;;;;;;5053713;28;20131;-73
2022/07/25 07:06:24;;;;;;;9.52;4.28;;;;;;;;;;5053028;28;20105;-74
2022/07/25 07:08:50;;;;;;;10.25;5.18;;;;;;;;;;5052091;28;20025;-73
2022/07/25 07:11:16;;;;;;;8.23;4.43;;;;;;;;;;5053426;28;20636;-74
2022/07/25 07:13:42;;;;;;;8.93;4.45;;;;;;;;;;5055104;28;20183;-75
2022/07/25 07:16:08;;;;;;;11.73;4.90;;;;;;;;;;5054340;28;20437;-73
2022/07/25 07:18:34;;;;;;;13.07;4.50;;;;;;;;;;5053292;28;20485;-76
2022/07/25 07:21:00;;;;;;;9.80;5.05;;;;;;;;;;5051554;28;20028;-75
2022/07/25 07:23:26;;;;;;;10.93;4.93;;;;;;;;;;5052344;28;20052;-75
2022/07/25 07:25:52;;;;;;;12.80;4.53;;;;;;;;;;5052621;28;20024;-73
2022/07/25 07:28:18;;;;;;;15.38;4.63;;;;;;;;;;5053076;28;20505;-74
2022/07/25 07:30:44;;;;;;;12.80;4.88;;;;;;;;;;5053797;28;20033;-74
2022/07/25 07:33:10;;;;;;;13.93;4.40;;;;;;;;;;5052957;28;20021;-74
2022/07/25 07:35:36;;;;;;;11.48;4.85;;;;;;;;;;5053579;28;20025;-72
2022/07/25 07:38:02;;;;;;;15.00;5.60;;;;;;;;;;5056609;28;20048;-74
2022/07/25 07:40:28;;;;;;;11.93;5.15;;;;;;;;;;5055419;28;20028;-73
2022/07/25 07:42:56;;;;;;;12.63;4.72;;;;;;;;;;5055275;28;20029;-71
2022/07/25 07:45:25;;;;;;;13.63;4.85;;;;;;;;;;5054659;28;20025;-72
2022/07/25 07:47:52;;;;;;;15.85;5.43;;;;;;;;;;5054364;28;20027;-71
2022/07/25 07:50:19;;;;;;;12.68;5.38;;;;;;;;;;5054219;28;20053;-74
2022/07/25 07:52:46;;;;;;;14.57;5.28;;;;;;;;;;5052898;28;20436;-74
2022/07/25 07:57:58;;;;;;;13.88;5.90;;;;;;;;;;5054527;28;20608;-72
2022/07/25 08:00:26;;;;;;;17.20;6.22;;;;;;;;;;5056590;28;20040;-71
2022/07/25 08:02:53;;;;;;;14.90;5.47;;;;;;;;;;5058954;28;20021;-72
2022/07/25 08:05:20;;;;;;;14.77;5.70;;;;;;;;;;5060280;28;20083;-74
2022/07/25 08:07:46;;;;;;;8.32;5.45;;;;;;;;;;5056840;28;20021;-73
2022/07/25 08:10:12;;;;;;;14.48;5.82;;;;;;;;;;5058691;28;20017;-71
2022/07/25 08:12:41;;;;;;;10.90;5.63;;;;;;;;;;5055468;28;20458;-72
2022/07/25 08:15:08;;;;;;;13.07;6.05;;;;;;;;;;5055540;28;20029;-74
2022/07/25 08:17:34;;;;;;;14.88;6.00;;;;;;;;;;5054207;28;20024;-72
2022/07/25 08:20:05;;;;;;;10.10;5.85;;;;;;;;;;5056119;28;20393;-73
2022/07/25 08:22:35;;;;;;;8.65;5.68;;;;;;;;;;5055222;28;20017;-74
2022/07/25 08:25:01;;;;;;;15.13;6.03;;;;;;;;;;5058858;28;20028;-73
2022/07/25 08:27:27;;;;;;;9.25;5.38;;;;;;;;;;5058267;28;20025;-73
2022/07/25 08:29:53;;;;;;;12.20;5.78;;;;;;;;;;5058917;28;20028;-72
2022/07/25 08:32:19;;;;;;;16.98;5.95;;;;;;;;;;5058959;28;20032;-72
2022/07/25 08:34:45;;;;;;;11.88;5.88;;;;;;;;;;5058064;28;20021;-74
2022/07/25 08:37:11;;;;;;;11.27;5.70;;;;;;;;;;5058498;28;20063;-75
2022/07/25 08:39:37;;;;;;;10.35;5.50;;;;;;;;;;5062366;28;20503;-72
2022/07/25 08:42:03;;;;;;;10.18;5.72;;;;;;;;;;5063459;28;20040;-72
2022/07/25 08:44:31;;;;;;;10.30;5.25;;;;;;;;;;5059678;28;20108;-74
2022/07/25 08:46:57;;;;;;;8.57;5.22;;;;;;;;;;5057874;28;20025;-74
2022/07/25 08:49:23;;;;;;;13.38;6.15;;;;;;;;;;5058666;28;20029;-72
2022/07/25 08:51:49;;;;;;;9.27;6.45;;;;;;;;;;5057550;28;20111;-73
2022/07/25 08:54:16;;;;;;;14.55;6.03;;;;;;;;;;5058146;28;20385;-73
2022/07/25 08:56:42;;;;;;;7.47;5.40;;;;;;;;;;5058607;28;20101;-73
2022/07/25 08:59:09;;;;;;;8.45;5.45;;;;;;;;;;5058122;28;20130;-74
2022/07/25 09:01:34;;;;;;;12.93;5.85;;;;;;;;;;5058459;28;20028;-73
2022/07/25 09:04:01;;;;;;;13.98;5.63;;;;;;;;;;5058193;28;20370;-72
2022/07/25 09:06:27;;;;;;;7.10;4.95;;;;;;;;;;5057826;28;20067;-71
2022/07/25 09:08:54;;;;;;;8.20;5.90;;;;;;;;;;5058060;28;20037;-72
2022/07/25 09:11:30;;;;;;;9.95;5.80;;;;;;;;;;5056782;28;20549;-71
2022/07/25 09:14:00;;;;;;;10.88;6.00;;;;;;;;;;5058811;28;20029;-73
2022/07/25 09:16:30;;;;;;;6.80;5.05;;;;;;;;;;5056742;28;20029;-73
2022/07/25 09:19:06;;;;;;;12.00;6.28;;;;;;;;;;5057530;28;20437;-73
2022/07/25 09:21:32;;;;;;;12.25;6.05;;;;;;;;;;5057875;28;20025;-73
2022/07/25 09:24:07;;;;;;;9.68;6.18;;;;;;;;;;5057087;28;20469;-75
2022/07/25 09:26:42;;;;;;;9.73;6.07;;;;;;;;;;5055778;28;20083;-76
2022/07/25 09:29:14;;;;;;;12.30;6.00;;;;;;;;;;5055341;28;20382;-75
2022/07/25 09:31:41;;;;;;;7.57;5.85;;;;;;;;;;5055457;28;20044;-72
2022/07/25 09:34:08;;;;;;;14.45;5.82;;;;;;;;;;5054958;28;20386;-74
2022/07/25 09:36:38;;;;;;;15.60;5.65;;;;;;;;;;5055477;28;20529;-74
2022/07/25 09:39:05;;;;;;;6.60;5.25;;;;;;;;;;5055498;28;20029;-72
2022/07/25 09:41:39;;;;;;;12.43;6.28;;;;;;;;;;5056280;28;20479;-76
2022/07/25 09:44:15;;;;;;;13.25;6.00;;;;;;;;;;5056986;28;20036;-75
2022/07/25 09:46:41;;;;;;;11.73;5.97;;;;;;;;;;5056979;28;20373;-76
2022/07/25 09:49:08;;;;;;;12.35;6.38;;;;;;;;;;5058359;28;20025;-73
2022/07/25 09:51:34;;;;;;;11.75;5.93;;;;;;;;;;5059127;28;20022;-72
2022/07/25 09:54:02;;;;;;;8.35;5.57;;;;;;;;;;5055621;28;20032;-74
2022/07/25 09:56:28;;;;;;;10.15;5.65;;;;;;;;;;5055141;28;20033;-72
2022/07/25 09:58:54;;;;;;;8.30;5.45;;;;;;;;;;5055407;28;20543;-72
2022/07/25 10:01:25;;;;;;;7.85;5.85;;;;;;;;;;5058648;28;20577;-73
2022/07/25 10:03:52;;;;;;;9.48;6.38;;;;;;;;;;5055997;28;20052;-75
2022/07/25 10:06:21;;;;;;;12.00;7.05;;;;;;;;;;5055347;28;20074;-72
2022/07/25 10:08:48;;;;;;;14.57;6.47;;;;;;;;;;5056133;28;20036;-72
2022/07/25 10:11:18;;;;;;;12.30;6.00;;;;;;;;;;5056415;28;20331;-74
2022/07/25 10:13:44;;;;;;;12.43;6.70;;;;;;;;;;5056459;28;20493;-72
2022/07/25 10:16:20;;;;;;;13.45;6.18;;;;;;;;;;5055496;28;20029;-74
2022/07/25 10:19:04;;;;;;;10.05;5.78;;;;;;;;;;5055201;28;20501;-75
2022/07/25 10:21:31;;;;;;;21.80;5.65;;;;;;;;;;5057244;28;20033;-72
2022/07/25 10:23:58;;;;;;;13.98;5.93;;;;;;;;;;5053005;28;20120;-72
2022/07/25 10:26:24;;;;;;;8.98;5.65;;;;;;;;;;5054128;28;20033;-72
2022/07/25 10:28:51;;;;;;;12.48;5.85;;;;;;;;;;5054117;28;20031;-73
2022/07/25 10:31:22;;;;;;;8.43;6.25;;;;;;;;;;5056707;28;20017;-77
2022/07/25 10:33:50;;;;;;;10.00;6.05;;;;;;;;;;5054458;28;20057;-73
2022/07/25 10:36:16;;;;;;;15.60;6.32;;;;;;;;;;5054766;28;20029;-74
2022/07/25 10:38:44;;;;;;;8.38;5.80;;;;;;;;;;5054408;28;20020;-73
2022/07/25 10:41:11;;;;;;;7.95;5.53;;;;;;;;;;5054831;28;20075;-73
2022/07/25 10:43:38;;;;;;;10.68;5.75;;;;;;;;;;5053549;28;20049;-72
2022/07/25 10:46:11;;;;;;;7.93;6.07;;;;;;;;;;5050916;28;20021;-72
2022/07/25 10:48:38;;;;;;;8.13;5.70;;;;;;;;;;5051407;28;20074;-72
2022/07/25 10:51:07;;;;;;;10.88;6.05;;;;;;;;;;5058885;28;20075;-72
2022/07/25 10:53:39;;;;;;;9.23;6.00;;;;;;;;;;5054244;28;20078;-72
2022/07/25 10:56:09;;;;;;;10.73;5.20;;;;;;;;;;5050564;28;20024;-73
2022/07/25 10:58:42;;;;;;;10.75;6.00;;;;;;;;;;5058163;28;20053;-73
2022/07/25 11:01:08;;;;;;;13.10;6.35;;;;;;;;;;5053077;28;20413;-72
2022/07/25 11:03:34;;;;;;;13.15;6.03;;;;;;;;;;5051264;28;20039;-72
2022/07/25 11:06:00;;;;;;;9.65;5.72;;;;;;;;;;5050741;28;20029;-71
2022/07/25 11:08:33;;;;;;;11.52;5.97;;;;;;;;;;5051845;28;20508;-72
2022/07/25 11:10:59;;;;;;;12.40;6.35;;;;;;;;;;5053796;28;20481;-72
2022/07/25 11:13:25;;;;;;;13.57;6.35;;;;;;;;;;5055061;28;20059;-72
2022/07/25 11:15:51;;;;;;;8.00;6.03;;;;;;;;;;5051937;28;20021;-72
2022/07/25 11:18:17;;;;;;;10.50;6.20;;;;;;;;;;5052843;28;20047;-72
2022/07/25 11:20:43;;;;;;;14.65;6.60;;;;;;;;;;5053535;28;20104;-72
2022/07/25 11:23:09;;;;;;;9.32;5.80;;;;;;;;;;5053708;28;20454;-72
2022/07/25 11:25:35;;;;;;;9.65;6.00;;;;;;;;;;5052854;28;20100;-71
2022/07/25 11:28:02;;;;;;;8.10;5.65;;;;;;;;;;5076582;22;20068;-76
2022/07/25 11:30:28;;;;;;;8.43;6.95;;;;;;;;;;5040360;28;20044;-77
2022/07/25 11:33:00;;;;;;;8.27;5.68;;;;;;;;;;5055393;28;20094;-76
2022/07/25 11:35:30;;;;;;;7.90;5.85;;;;;;;;;;5053627;28;20500;-76
2022/07/25 11:38:00;;;;;;;10.60;5.28;;;;;;;;;;5054217;28;20453;-77
2022/07/25 11:40:26;;;;;;;9.25;6.00;;;;;;;;;;5056824;28;20021;-77
2022/07/25 11:42:54;;;;;;;7.38;5.78;;;;;;;;;;5056739;28;20029;-77
2022/07/25 11:45:21;;;;;;;13.25;6.32;;;;;;;;;;5056611;28;20033;-77
2022/07/25 11:47:49;;;;;;;8.32;6.07;;;;;;;;;;5058166;28;20060;-77
2022/07/25 11:50:16;;;;;;;12.20;9.40;;;;;;;;;;5061250;28;20021;-77
2022/07/25 11:52:42;;;;;;;10.15;6.35;;;;;;;;;;5059751;28;20425;-77
2022/07/25 11:55:10;;;;;;;7.55;6.20;;;;;;;;;;5060064;28;20028;-78
2022/07/25 11:57:40;;;;;;;8.15;6.40;;;;;;;;;;5056888;28;20035;-76
2022/07/25 12:00:10;;;;;;;10.77;6.80;;;;;;;;;;5060732;28;20032;-77
2022/07/25 12:02:36;;;;;;;8.45;6.25;;;;;;;;;;5057143;28;20033;-76
2022/07/25 12:05:07;;;;;;;11.27;6.25;;;;;;;;;;5056625;28;20106;-75
2022/07/25 12:07:49;;;;;;;8.65;6.10;;;;;;;;;;5052045;28;20029;-77
2022/07/25 12:10:16;;;;;;;9.18;6.28;;;;;;;;;;5054365;28;20021;-77
2022/07/25 12:12:50;;;;;;;17.17;6.65;;;;;;;;;;5054124;28;20025;-77
2022/07/25 12:15:20;;;;;;;8.95;5.65;;;;;;;;;;5058549;28;20100;-78
2022/07/25 12:17:46;;;;;;;12.82;5.50;;;;;;;;;;5055655;28;20028;-77
2022/07/25 12:20:16;;;;;;;25.15;6.13;;;;;;;;;;5055278;28;20036;-78
2022/07/25 12:22:42;;;;;;;11.30;5.50;;;;;;;;;;5056653;28;20473;-77
2022/07/25 12:25:09;;;;;;;10.07;5.70;;;;;;;;;;5056290;28;20060;-77
2022/07/25 12:27:34;;;;;;;7.35;5.57;;;;;;;;;;5053959;28;20549;-76
2022/07/25 12:30:00;;;;;;;10.82;6.05;;;;;;;;;;5053576;28;20068;-75
2022/07/25 12:32:26;;;;;;;16.92;5.75;;;;;;;;;;5052753;28;20021;-77
2022/07/25 12:34:52;;;;;;;12.80;5.65;;;;;;;;;;5054080;28;20426;-75
2022/07/25 12:37:20;;;;;;;11.30;6.40;;;;;;;;;;5053084;28;20053;-77
2022/07/25 12:39:46;;;;;;;13.95;5.35;;;;;;;;;;5053440;28;20017;-75
2022/07/25 12:42:12;;;;;;;13.60;5.50;;;;;;;;;;5053187;28;20029;-76
2022/07/25 12:44:38;;;;;;;7.75;5.45;;;;;;;;;;5053747;28;20247;-76
2022/07/25 12:47:04;;;;;;;11.32;5.28;;;;;;;;;;5053881;28;20052;-77
2022/07/25 12:49:30;;;;;;;11.75;5.47;;;;;;;;;;5053236;28;20083;-76
2022/07/25 12:51:56;;;;;;;7.47;5.60;;;;;;;;;;5054120;28;20024;-75
2022/07/25 12:54:22;;;;;;;13.95;5.47;;;;;;;;;;5054003;28;20029;-76
2022/07/25 12:56:48;;;;;;;10.98;5.35;;;;;;;;;;5054094;28;20025;-77
2022/07/25 12:59:14;;;;;;;8.02;5.60;;;;;;;;;;5054010;28;20214;-82
2022/07/25 13:01:40;;;;;;;7.75;5.40;;;;;;;;;;5052303;28;20090;-77
2022/07/25 13:04:08;;;;;;;7.55;5.60;;;;;;;;;;5054480;28;20416;-75
2022/07/25 13:06:34;;;;;;;10.32;5.20;;;;;;;;;;5054210;28;20021;-77
2022/07/25 13:09:00;;;;;;;7.38;5.38;;;;;;;;;;5053068;28;20092;-76
2022/07/25 13:11:26;;;;;;;12.40;5.50;;;;;;;;;;5060849;28;20025;-77
2022/07/25 13:13:52;;;;;;;8.13;5.40;;;;;;;;;;5060099;28;20492;-77
2022/07/25 13:16:18;;;;;;;10.80;5.93;;;;;;;;;;5060381;28;20119;-76
2022/07/25 13:18:44;;;;;;;7.22;5.28;;;;;;;;;;5055070;28;20025;-75
2022/07/25 13:21:10;;;;;;;7.80;5.45;;;;;;;;;;5060802;28;20396;-77
2022/07/25 13:23:36;;;;;;;8.60;5.57;;;;;;;;;;5061316;28;20032;-77
2022/07/25 13:26:02;;;;;;;12.63;5.30;;;;;;;;;;5059474;28;20024;-77
2022/07/25 13:28:28;;;;;;;9.55;5.32;;;;;;;;;;5058681;28;20087;-76
2022/07/25 13:30:54;;;;;;;7.07;5.32;;;;;;;;;;5057944;28;20440;-77
2022/07/25 13:33:20;;;;;;;8.65;5.65;;;;;;;;;;5058175;28;20071;-75
2022/07/25 13:35:46;;;;;;;11.20;5.75;;;;;;;;;;5059934;28;20025;-77
2022/07/25 13:38:13;;;;;;;9.75;5.70;;;;;;;;;;5057091;28;20021;-76
2022/07/25 13:40:42;;;;;;;10.75;5.85;;;;;;;;;;5054913;28;20111;-77
2022/07/25 13:43:09;;;;;;;10.90;5.43;;;;;;;;;;5059536;28;20024;-77
2022/07/25 13:45:35;;;;;;;9.07;5.85;;;;;;;;;;5057333;28;20494;-76
2022/07/25 13:48:01;;;;;;;12.57;5.95;;;;;;;;;;5060317;28;20032;-77
2022/07/25 13:50:27;;;;;;;12.57;5.80;;;;;;;;;;5057746;28;20074;-78
2022/07/25 13:52:56;;;;;;;9.48;5.97;;;;;;;;;;5058408;28;20420;-77
2022/07/25 13:55:22;;;;;;;9.52;6.20;;;;;;;;;;5054500;28;20025;-77
2022/07/25 13:57:48;;;;;;;9.75;6.72;;;;;;;;;;5057396;28;20079;-78
2022/07/25 14:00:14;;;;;;;20.83;8.77;;;;;;;;;;5061626;28;20021;-77
2022/07/25 14:02:40;;;;;;;18.90;8.70;;;;;;;;;;5073612;28;20005;-76
2022/07/25 14:05:06;;;;;;;20.75;8.90;;;;;;;;;;5076973;28;20033;-77
2022/07/25 14:07:34;;;;;;;20.90;8.00;;;;;;;;;;5070020;28;20028;-77
2022/07/25 14:10:00;;;;;;;17.67;7.13;;;;;;;;;;5071434;28;20013;-76
2022/07/25 14:12:26;;;;;;;18.60;7.63;;;;;;;;;;5077996;28;20009;-77
2022/07/25 14:14:52;;;;;;;15.82;7.93;;;;;;;;;;5065210;28;20060;-77
2022/07/25 14:17:18;;;;;;;19.05;9.60;;;;;;;;;;5055553;28;20120;-77
2022/07/25 14:19:44;;;;;;;14.07;8.20;;;;;;;;;;5057868;28;20544;-77
2022/07/25 14:22:10;;;;;;;23.67;8.57;;;;;;;;;;5064177;28;20025;-77
2022/07/25 14:24:35;;;;;;;14.63;7.53;;;;;;;;;;5064692;28;20033;-76
2022/07/25 14:27:02;;;;;;;16.80;6.95;;;;;;;;;;5066132;28;20025;-77
2022/07/25 14:29:28;;;;;;;12.77;6.90;;;;;;;;;;5066240;28;20056;-77
2022/07/25 14:31:54;;;;;;;14.88;6.25;;;;;;;;;;5065176;28;20052;-77